createdAt,value
2023-02-11T01:14:57.526Z,101301.27
2023-02-11T01:18:01.333Z,101304.59
2023-02-11T01:21:02.438Z,101312.38
2023-02-11T01:24:03.669Z,101313.45
2023-02-11T01:27:03.319Z,101311.52
2023-02-11T01:30:04.574Z,101311.99
2023-02-11T01:33:06.368Z,101306.38
2023-02-11T01:36:09.457Z,101310.95
2023-02-11T01:39:09.367Z,101314.74
2023-02-11T01:42:10.334Z,101318.46
2023-02-11T01:45:13.365Z,101316.48
2023-02-11T01:48:15.345Z,101314.09
2023-02-11T01:51:27.904Z,101310.99
2023-02-11T01:54:52.359Z,101301.44
2023-02-11T01:57:53.341Z,101299.63
2023-02-11T02:00:55.494Z,101303.91
2023-02-11T02:03:56.495Z,101303.84
2023-02-11T02:07:09.399Z,101301.18
2023-02-11T02:10:19.536Z,101296.63
2023-02-11T02:13:23.379Z,101297.89
2023-02-11T02:16:27.535Z,101288.62
2023-02-11T02:19:40.474Z,101287.48
2023-02-11T02:23:12.391Z,101290.31
2023-02-11T02:26:27.413Z,101285.74
2023-02-11T02:29:54.392Z,101284.11
2023-02-11T02:33:07.932Z,101282.98
2023-02-11T02:36:28.420Z,101288.62
2023-02-11T02:39:37.502Z,101286.42
2023-02-11T02:42:38.439Z,101276.37
2023-02-11T02:45:38.420Z,101272.89
2023-02-11T02:48:47.679Z,101267.38
2023-02-11T02:51:56.454Z,101268.74
2023-02-11T02:55:09.426Z,101280.69
2023-02-11T02:58:40.448Z,101280.62
2023-02-11T03:01:58.561Z,101283.95
2023-02-11T03:05:34.481Z,101283.83
2023-02-11T03:08:48.615Z,101283.32
2023-02-11T03:11:49.507Z,101281.39
2023-02-11T03:14:49.484Z,101279.89
2023-02-11T03:17:52.498Z,101274.04
2023-02-11T03:20:52.510Z,101275.60
2023-02-11T03:24:07.750Z,101270.98
2023-02-11T03:27:19.062Z,101264.23
2023-02-11T03:30:23.518Z,101259.91
2023-02-11T03:33:36.528Z,101257.65
2023-02-11T03:36:54.590Z,101255.98
2023-02-11T03:40:01.587Z,101253.26
2023-02-11T03:43:09.821Z,101253.63
2023-02-11T03:46:09.565Z,101251.83
2023-02-11T03:49:11.547Z,101239.48
2023-02-11T03:52:17.727Z,101227.38
2023-02-11T03:55:25.708Z,101227.52
2023-02-11T03:58:26.655Z,101221.32
2023-02-11T04:01:26.629Z,101221.09
2023-02-11T04:04:27.579Z,101217.75
2023-02-11T04:07:30.668Z,101212.20
2023-02-11T04:10:33.772Z,101214.38
2023-02-11T04:13:36.615Z,101209.83
2023-02-11T04:16:37.661Z,101205.68
2023-02-11T04:19:38.634Z,101204.89
2023-02-11T04:22:43.153Z,101203.05
2023-02-11T04:25:47.673Z,101206.90
2023-02-11T04:28:47.691Z,101203.02
2023-02-11T04:31:48.747Z,101203.60
2023-02-11T04:34:50.638Z,101202.54
2023-02-11T04:37:52.628Z,101198.56
2023-02-11T04:40:52.650Z,101196.31
2023-02-11T04:43:53.709Z,101187.17
2023-02-11T04:46:55.674Z,101177.71
2023-02-11T04:49:58.795Z,101173.24
2023-02-11T04:53:01.967Z,101175.55
2023-02-11T04:56:02.711Z,101173.52
2023-02-11T04:59:02.787Z,101170.27
2023-02-11T05:02:02.782Z,101161.90
2023-02-11T05:05:03.893Z,101160.08
2023-02-11T05:08:04.667Z,101159.92
2023-02-11T05:11:04.717Z,101157.05
2023-02-11T05:14:08.536Z,101157.84
2023-02-11T05:17:08.866Z,101157.65
2023-02-11T05:20:08.676Z,101153.80
2023-02-11T05:23:09.702Z,101162.36
2023-02-11T05:26:10.857Z,101165.30
2023-02-11T05:29:12.837Z,101165.86
2023-02-11T05:32:21.682Z,101162.80
2023-02-11T05:35:21.776Z,101156.89
2023-02-11T05:38:27.155Z,101155.14
2023-02-11T05:41:28.716Z,101152.63
2023-02-11T05:44:28.699Z,101153.55
2023-02-11T05:47:30.725Z,101152.04
2023-02-11T05:50:32.700Z,101152.17
2023-02-11T05:53:32.721Z,101143.60
2023-02-11T05:56:43.776Z,101136.17
2023-02-11T05:59:45.744Z,101132.52
2023-02-11T06:02:47.137Z,101125.00
2023-02-11T06:05:48.158Z,101126.13
2023-02-11T06:08:51.761Z,101113.17
2023-02-11T06:11:51.909Z,101113.80
2023-02-11T06:14:52.818Z,101104.40
2023-02-11T06:17:55.096Z,101108.84
2023-02-11T06:20:58.769Z,101099.35
2023-02-11T06:24:00.827Z,101099.13
2023-02-11T06:27:00.814Z,101096.04
2023-02-11T06:30:01.918Z,101095.56
2023-02-11T06:33:02.796Z,101088.32
2023-02-11T06:36:04.238Z,101084.23
2023-02-11T06:39:04.875Z,101075.30
2023-02-11T06:42:08.021Z,101069.43
2023-02-11T06:45:14.608Z,101062.29
2023-02-11T06:48:21.417Z,101066.14
2023-02-11T06:51:23.799Z,101061.66
2023-02-11T06:54:26.355Z,101053.41
2023-02-11T06:57:26.807Z,101048.30
2023-02-11T07:00:26.852Z,101042.21
2023-02-11T07:03:27.907Z,101035.98
2023-02-11T07:06:31.089Z,101033.31
2023-02-11T07:09:34.902Z,101027.79
2023-02-11T07:12:36.867Z,101030.43
2023-02-11T07:15:38.949Z,101035.79
2023-02-11T07:18:49.922Z,101030.52
2023-02-11T07:21:55.366Z,101033.07
2023-02-11T07:24:56.870Z,101029.46
2023-02-11T07:28:00.497Z,101028.77
2023-02-11T07:31:05.011Z,101035.98
2023-02-11T07:34:06.156Z,101034.95
2023-02-11T07:37:10.014Z,101030.48
2023-02-11T07:40:13.016Z,101030.98
2023-02-11T07:43:20.747Z,101023.98
2023-02-11T07:46:31.966Z,101025.14
2023-02-11T07:49:32.004Z,101023.13
2023-02-11T07:52:31.933Z,101017.30
2023-02-11T07:55:25.747Z,101013.05
2023-02-11T07:58:25.996Z,101002.94
2023-02-11T08:01:33.169Z,100993.91
2023-02-11T08:04:34.042Z,100981.89
2023-02-11T08:07:37.055Z,100978.67
2023-02-11T08:10:38.958Z,100973.02
2023-02-11T08:13:40.933Z,100978.25
2023-02-11T08:16:58.296Z,100972.13
2023-02-11T08:20:00.106Z,100966.48
2023-02-11T08:23:04.992Z,100968.00
2023-02-11T08:26:06.026Z,100966.16
2023-02-11T08:29:07.411Z,100955.98
2023-02-11T08:32:12.209Z,100956.10
2023-02-11T08:35:14.449Z,100956.65
2023-02-11T08:38:18.138Z,100957.81
2023-02-11T08:41:21.509Z,100953.23
2023-02-11T08:44:23.981Z,100950.70
2023-02-11T08:47:27.998Z,100946.89
2023-02-11T08:50:31.095Z,100941.96
2023-02-11T08:53:40.544Z,100940.33
2023-02-11T08:56:43.316Z,100939.36
2023-02-11T08:59:45.979Z,100927.83
2023-02-11T09:02:46.046Z,100919.69
2023-02-11T09:05:46.688Z,100910.85
2023-02-11T09:08:52.522Z,100913.61
2023-02-11T09:11:56.238Z,100911.05
2023-02-11T09:14:57.276Z,100906.95
2023-02-11T09:17:59.068Z,100901.33
2023-02-11T09:21:07.340Z,100896.60
2023-02-11T09:24:10.534Z,100878.42
2023-02-11T09:27:12.289Z,100870.33
2023-02-11T09:30:20.071Z,100856.90
2023-02-11T09:33:29.649Z,100863.01
2023-02-11T09:36:36.107Z,100853.70
2023-02-11T09:39:37.121Z,100851.84
2023-02-11T09:42:48.105Z,100849.20
2023-02-11T09:45:48.161Z,100852.81
2023-02-11T09:48:53.378Z,100848.55
2023-02-11T09:52:02.122Z,100845.73
2023-02-11T09:55:06.143Z,100843.30
2023-02-11T09:58:11.596Z,100833.46
2023-02-11T10:01:28.225Z,100822.70
2023-02-11T10:05:10.190Z,100822.42
2023-02-11T10:08:34.135Z,100813.48
2023-02-11T10:12:00.500Z,100813.91
2023-02-11T10:15:40.803Z,100803.57
2023-02-11T10:19:00.433Z,100798.23
2023-02-11T10:22:23.555Z,100783.42
2023-02-11T10:25:36.298Z,100767.78
2023-02-11T10:28:47.247Z,100762.36
2023-02-11T10:31:58.307Z,100761.45
2023-02-11T10:35:04.764Z,100757.17
2023-02-11T10:41:36.421Z,100759.90
2023-02-11T10:45:11.412Z,100750.73
2023-02-11T10:48:19.615Z,100740.27
2023-02-11T10:51:46.284Z,100733.12
2023-02-11T10:54:46.241Z,100732.27
2023-02-11T10:58:15.285Z,100721.98
2023-02-11T11:04:55.324Z,100710.27
2023-02-11T11:07:55.786Z,100704.60
2023-02-11T11:10:58.286Z,100687.25
2023-02-11T11:14:11.275Z,100678.86
2023-02-11T11:17:13.237Z,100674.05
2023-02-11T11:20:44.469Z,100664.03
2023-02-11T11:23:52.271Z,100656.94
2023-02-11T11:26:59.494Z,100645.64
2023-02-11T11:30:06.312Z,100633.80
2023-02-11T11:33:10.611Z,100632.83
2023-02-11T11:36:15.454Z,100621.80
2023-02-11T11:39:45.031Z,100617.86
2023-02-11T11:42:53.347Z,100613.30
2023-02-11T11:46:15.823Z,100607.92
2023-02-11T11:49:32.292Z,100598.65
2023-02-11T11:53:00.405Z,100588.67
2023-02-11T11:56:13.592Z,100582.05
2023-02-11T11:59:23.334Z,100564.59
2023-02-11T12:02:52.409Z,100570.81
2023-02-11T12:06:05.336Z,100564.52
2023-02-11T12:09:35.357Z,100561.60
2023-02-11T12:13:19.512Z,100553.96
2023-02-11T12:16:48.438Z,100537.18
2023-02-11T12:19:51.599Z,100532.69
2023-02-11T12:23:13.381Z,100527.11
2023-02-11T12:26:32.795Z,100520.19
2023-02-11T12:29:50.357Z,100516.73
2023-02-11T12:33:08.346Z,100500.32
2023-02-11T12:36:45.374Z,100500.54
2023-02-11T12:39:57.502Z,100491.27
2023-02-11T12:43:22.386Z,100484.45
2023-02-11T12:46:49.624Z,100478.55
2023-02-11T12:50:05.431Z,100476.29
2023-02-11T12:53:22.379Z,100476.55
2023-02-11T12:56:28.423Z,100464.98
2023-02-11T13:00:02.460Z,100460.64
2023-02-11T13:03:19.127Z,100457.48
2023-02-11T13:06:24.628Z,100451.66
2023-02-11T13:09:33.469Z,100439.20
2023-02-11T13:12:51.456Z,100436.80
2023-02-11T13:15:55.572Z,100431.10
2023-02-11T13:19:04.640Z,100415.17
2023-02-11T13:22:18.634Z,100409.64
2023-02-11T13:25:41.800Z,100406.47
2023-02-11T13:29:08.519Z,100403.55
2023-02-11T13:32:17.444Z,100394.48
2023-02-11T13:35:42.791Z,100382.77
2023-02-11T13:38:42.478Z,100370.06
2023-02-11T13:41:40.383Z,100362.86
2023-02-11T13:44:41.522Z,100364.76
2023-02-11T13:47:44.531Z,100362.23
2023-02-11T13:50:50.775Z,100348.68
2023-02-11T13:54:11.568Z,100347.74
2023-02-11T13:57:35.515Z,100347.62
2023-02-11T14:00:49.290Z,100348.57
2023-02-11T14:04:11.703Z,100349.46
2023-02-11T14:08:02.637Z,100350.81
2023-02-11T14:11:02.602Z,100346.44
2023-02-11T14:14:03.526Z,100355.29
2023-02-11T14:17:25.627Z,100355.70
2023-02-11T14:20:46.610Z,100344.30
2023-02-11T14:23:46.554Z,100344.34
2023-02-11T14:26:59.746Z,100328.97
2023-02-11T14:30:04.616Z,100325.36
2023-02-11T14:33:21.547Z,100317.17
2023-02-11T14:36:49.749Z,100297.55
2023-02-11T14:40:01.652Z,100300.49
2023-02-11T14:43:05.604Z,100287.98
2023-02-11T14:46:07.652Z,100284.35
2023-02-11T14:49:10.602Z,100288.25
2023-02-11T14:52:19.750Z,100269.91
2023-02-11T14:55:29.631Z,100268.77
2023-02-11T14:58:49.735Z,100269.51
2023-02-11T15:01:53.677Z,100263.45
2023-02-11T15:04:54.615Z,100256.45
2023-02-11T15:07:59.781Z,100244.84
2023-02-11T15:11:03.654Z,100251.35
2023-02-11T15:14:05.989Z,100256.60
2023-02-11T15:17:08.693Z,100251.82
2023-02-11T15:20:12.673Z,100260.00
2023-02-11T15:23:15.681Z,100246.22
2023-02-11T15:26:24.684Z,100250.66
2023-02-11T15:29:30.664Z,100251.10
2023-02-11T15:33:03.945Z,100249.20
2023-02-11T15:36:04.679Z,100246.81
2023-02-11T15:39:31.714Z,100236.08
2023-02-11T15:42:47.199Z,100232.69
2023-02-11T15:45:58.832Z,100228.06
2023-02-11T15:49:06.772Z,100228.42
2023-02-11T15:52:08.711Z,100237.48
2023-02-11T15:55:09.079Z,100244.43
2023-02-11T15:58:13.815Z,100237.48
2023-02-11T16:01:16.160Z,100233.33
2023-02-11T16:04:20.976Z,100230.42
2023-02-11T16:07:50.772Z,100222.80
2023-02-11T16:10:52.044Z,100227.84
2023-02-11T16:13:59.787Z,100218.88
2023-02-11T16:17:01.711Z,100208.08
2023-02-11T16:20:02.792Z,100215.73
2023-02-11T16:23:03.791Z,100206.56
2023-02-11T16:26:08.017Z,100201.99
2023-02-11T16:29:15.998Z,100196.00
2023-02-11T16:32:44.831Z,100188.11
2023-02-11T16:35:44.863Z,100186.31
2023-02-11T16:38:45.798Z,100175.73
2023-02-11T16:41:45.807Z,100174.79
2023-02-11T16:44:45.786Z,100175.00
2023-02-11T16:47:46.790Z,100170.27
2023-02-11T16:50:47.818Z,100172.38
2023-02-11T16:53:49.866Z,100169.73
2023-02-11T16:56:52.052Z,100155.41
2023-02-11T16:59:52.830Z,100159.94
2023-02-11T17:02:52.822Z,100155.83
2023-02-11T17:05:55.738Z,100145.70
2023-02-11T17:09:02.898Z,100149.48
2023-02-11T17:12:03.923Z,100139.27
2023-02-11T17:15:07.536Z,100132.30
2023-02-11T17:18:10.888Z,100129.52
2023-02-11T17:21:12.987Z,100125.02
2023-02-11T17:24:15.916Z,100121.83
2023-02-11T17:27:16.172Z,100107.14
2023-02-11T17:30:16.011Z,100102.94
2023-02-11T17:33:16.179Z,100111.02
2023-02-11T17:36:19.103Z,100106.83
2023-02-11T17:39:21.939Z,100099.80
2023-02-11T17:42:26.862Z,100098.30
2023-02-11T17:45:26.986Z,100110.45
2023-02-11T17:48:26.935Z,100100.42
2023-02-11T17:51:44.949Z,100091.10
2023-02-11T17:54:44.951Z,100089.41
2023-02-11T17:57:45.089Z,100093.98
2023-02-11T18:00:46.835Z,100082.70
2023-02-11T18:03:49.998Z,100084.51
2023-02-11T18:06:50.934Z,100083.63
2023-02-11T18:09:53.832Z,100074.63
2023-02-11T18:12:54.966Z,100084.29
2023-02-11T18:15:59.166Z,100073.97
2023-02-11T18:19:01.977Z,100073.11
2023-02-11T18:22:02.950Z,100038.16
2023-02-11T18:25:09.930Z,100037.91
2023-02-11T18:28:11.027Z,100050.30
2023-02-11T18:31:12.339Z,100040.27
2023-02-11T18:34:17.018Z,100056.33
2023-02-11T18:37:18.472Z,100055.47
2023-02-11T18:40:20.966Z,100057.86
2023-02-11T18:43:21.187Z,100021.05
2023-02-11T18:46:23.017Z,100054.48
2023-02-11T18:49:25.153Z,100057.73
2023-02-11T18:52:29.870Z,100044.38
2023-02-11T18:55:32.083Z,100033.52
2023-02-11T18:58:33.033Z,100038.67
2023-02-11T19:01:39.153Z,100049.63
2023-02-11T19:04:39.102Z,100053.20
2023-02-11T19:07:39.110Z,100045.12
2023-02-11T19:10:40.053Z,100044.88
2023-02-11T19:13:42.111Z,100044.10
2023-02-11T19:16:42.230Z,100029.70
2023-02-11T19:19:47.374Z,100033.60
2023-02-11T19:22:48.112Z,100028.11
2023-02-11T19:25:48.179Z,100019.96
2023-02-11T19:28:49.118Z,100021.45
2023-02-11T19:31:50.470Z,100017.31
2023-02-11T19:34:48.713Z,100006.16
2023-02-11T19:37:55.648Z,100017.98
2023-02-11T19:40:57.312Z,100020.36
2023-02-11T19:43:59.093Z,100012.35
2023-02-11T19:46:59.151Z,100016.73
2023-02-11T19:50:02.420Z,100012.77
2023-02-11T19:53:09.185Z,100007.16
2023-02-11T19:56:09.284Z,99983.09
2023-02-11T19:59:11.128Z,99999.54
2023-02-11T20:02:11.183Z,99991.17
2023-02-11T20:05:11.161Z,99984.80
2023-02-11T20:08:14.315Z,99986.80
2023-02-11T20:11:24.132Z,99983.71
2023-02-11T20:14:30.287Z,99966.17
2023-02-11T20:17:32.153Z,99970.68
2023-02-11T20:20:34.341Z,99982.54
2023-02-11T20:23:40.159Z,99977.70
2023-02-11T20:26:47.154Z,99967.15
2023-02-11T20:29:48.161Z,99974.43
2023-02-11T20:32:48.410Z,99968.27
2023-02-11T20:35:50.371Z,99964.36
2023-02-11T20:39:01.455Z,99968.05
2023-02-11T20:42:09.935Z,99965.05
2023-02-11T20:45:12.211Z,99967.30
2023-02-11T20:48:12.252Z,99963.58
2023-02-11T20:51:23.737Z,99957.41
2023-02-11T20:54:31.548Z,99961.91
2023-02-11T20:57:32.245Z,99961.23
2023-02-11T21:00:34.528Z,99961.32
2023-02-11T21:03:45.217Z,99960.77
2023-02-11T21:06:50.229Z,99952.75
2023-02-11T21:09:53.555Z,99944.84
2023-02-11T21:12:58.240Z,99948.13
2023-02-11T21:16:01.546Z,99952.30
2023-02-11T21:19:02.875Z,99937.27
2023-02-11T21:22:07.282Z,99951.73
2023-02-11T21:25:08.461Z,99951.94
2023-02-11T21:28:11.812Z,99949.86
2023-02-11T21:31:13.392Z,99948.67
2023-02-11T21:34:14.447Z,99941.77
2023-02-11T21:37:15.224Z,99938.13
2023-02-11T21:40:17.714Z,99939.66
2023-02-11T21:43:19.256Z,99939.41
2023-02-11T21:46:22.424Z,99934.83
2023-02-11T21:49:26.283Z,99931.80
2023-02-11T21:52:27.319Z,99930.63
2023-02-11T21:55:27.356Z,99930.54
2023-02-11T21:58:27.309Z,99926.67
2023-02-11T22:01:30.618Z,99930.30
2023-02-11T22:04:31.449Z,99915.13
2023-02-11T22:07:33.322Z,99921.39
2023-02-11T22:10:34.370Z,99917.02
2023-02-11T22:13:35.341Z,99921.91
2023-02-11T22:16:36.501Z,99914.41
2023-02-11T22:19:38.373Z,99914.71
2023-02-11T22:22:43.590Z,99910.81
2023-02-11T22:25:43.431Z,99917.33
2023-02-11T22:28:46.348Z,99908.75
2023-02-11T22:31:46.435Z,99917.19
2023-02-11T22:34:46.363Z,99916.03
2023-02-11T22:37:48.581Z,99917.13
2023-02-11T22:40:48.395Z,99913.98
2023-02-11T22:43:49.383Z,99919.95
2023-02-11T22:46:50.628Z,99913.06
2023-02-11T22:49:52.419Z,99919.23
2023-02-11T22:52:54.378Z,99923.05
2023-02-11T22:55:54.771Z,99917.06
2023-02-11T22:58:55.648Z,99921.85
2023-02-11T23:01:55.508Z,99919.61
2023-02-11T23:04:56.465Z,99919.70
2023-02-11T23:07:57.429Z,99911.11
2023-02-11T23:10:59.417Z,99913.30
2023-02-11T23:14:04.424Z,99915.57
2023-02-11T23:17:05.428Z,99916.92
2023-02-11T23:20:07.466Z,99922.70
2023-02-11T23:23:07.667Z,99912.86
2023-02-11T23:26:07.505Z,99925.66
2023-02-11T23:29:10.424Z,99924.19
2023-02-11T23:32:10.482Z,99919.51
2023-02-11T23:35:10.464Z,99919.02
2023-02-11T23:38:12.478Z,99924.20
2023-02-11T23:41:12.529Z,99931.86
2023-02-11T23:44:12.527Z,99933.20
2023-02-11T23:47:13.487Z,99933.11
2023-02-11T23:50:14.500Z,99938.80
2023-02-11T23:53:15.484Z,99938.94
2023-02-11T23:56:28.522Z,99939.29
2023-02-11T23:59:29.492Z,99945.41
